Hualapai Flat, Nevada Weather observations

Data are for 10 minute period ending at time listed.
 Day   Time   Solar   Ave.   Ave.  Ave.  Vector  Max.   Baro.   Total    
  of    of     Rad.   Air    Rel.  Wind   Wind   Wind  Press.  Precip.   
Year   Day            Temp.  Hum.  Speed  Dir.   Gust                    
2017   (PST)  Kw/m2    F      %     mph   deg.    mph    mb.     in.     
-------------------------------------------------------------------------
 178    8:30   0.68   76.5    24    4.5   147     7.4   876.0    0.00 
 178    8:40   0.70   75.4    24    4.2   116     8.0   875.8    0.00 
 178    8:50   0.73   76.6    25    5.6   135     8.3   875.7    0.00 
 178    9:00   0.75   77.7    23    4.7   135     7.6   875.5    0.00 
 178    9:10   0.78   77.7    22    3.5   126     7.2   875.4    0.00 
 178    9:20   0.80   78.7    22    4.5   128     7.9   875.3    0.00 
 178    9:30   0.82   77.9    22    4.6    93    10.0   875.1    0.00 
 178    9:40   0.84   78.5    20    6.8   105    12.9   875.0    0.00 
 178    9:50   0.86   79.4    18    4.4    94    11.9   874.9    0.00 
 178   10:00   0.87   82.3    18    4.6   193     8.5   874.8    0.00 
 178   10:10   0.89   82.8    17    5.3   133     9.1   874.7    0.00 
 178   10:20   0.90   80.9    17    3.6   208     7.0   874.7    0.00 
 178   10:30   0.92   83.4    15    5.1   213    11.5   874.6    0.00 
 178   10:40   0.93   83.3    13    7.5   256    15.1   874.6    0.00 
 178   10:50   0.94   82.9    13   10.0   254    17.9   874.5    0.00 
 178   11:00   0.95   83.0    13    9.7   259    16.1   874.4    0.00 
 178   11:10   0.96   83.3    13    9.0   266    16.4   874.3    0.00 
 178   11:20   0.96   83.4    13    9.8   276    17.0   874.2    0.00 
 178   11:30   0.96   83.5    13    9.0   260    18.0   874.1    0.00 
 178   11:40   0.97   84.1    13    8.1   234    15.1   874.1    0.00 
 178   11:50   0.97   84.5    13    9.7   240    18.3   874.0    0.00 
 178   12:00   0.97   84.3    12    8.2   257    15.1   874.0    0.00 
 178   12:10   0.97   84.9    12    6.1   221    18.0   873.9    0.00 
 178   12:20   0.97   85.6    12    8.9   231    20.0   873.8    0.00 
 178   12:30   0.96   85.2    12    7.0   284    16.1   873.6    0.00 
 178   12:40   0.96   85.6    13    8.6   231    17.0   873.5    0.00 
 178   12:50   0.95   87.4    13   10.5   198    17.6   873.4    0.00 
 178   13:00   0.94   87.9    14    7.7   180    15.0   873.4    0.00 
 178   13:10   0.93   88.6    14    9.4   188    14.2   873.2    0.00 
 178   13:20   0.92   88.6    13    7.7   207    18.2   873.2    0.00 
 178   13:30   0.90   87.7    12   11.6   221    21.5   873.0    0.00 
 178   13:40   0.89   87.2    13   10.0   201    25.3   872.9    0.00 
 178   13:50   0.87   88.0    13    8.5   184    14.5   872.8    0.00 
 178   14:00   0.86   88.0    12    9.7   243    16.1   872.7    0.00 
 178   14:10   0.84   87.0    11   12.3   232    23.2   872.6    0.00 
 178   14:20   0.82   87.6    13   10.7   183    19.4   872.5    0.00 
 178   14:30   0.80   88.8    12    8.1   223    16.0   872.5    0.00 
 178   14:40   0.77   88.0    12   11.4   235    23.0   872.4    0.00 
 178   14:50   0.75   88.2    13   10.0   187    17.5   872.4    0.00 
 178   15:00   0.72   89.5    12    6.4   207    17.1   872.4    0.00 
 178   15:10   0.70   88.3    10   13.3   256    20.9   872.3    0.00 
 178   15:20   0.67   87.5    10    9.9   282    25.4   872.1    0.00 
 178   15:30   0.64   87.3    11   15.8   251    24.8   872.0    0.00 
 178   15:40   0.62   87.3    11   10.4   221    19.0   871.8    0.00 
 178   15:50   0.59   88.6    11   11.7   234    23.4   871.6    0.00 
 178   16:00   0.56   87.7    12   13.0   223    20.7   871.5    0.00 
 178   16:10   0.52   87.7    12   11.4   228    18.6   871.4    0.00 
 178   16:20   0.50   88.1    12    9.4   225    15.6   871.3    0.00 
 178   16:30   0.47   87.3    12   15.7   246    24.1   871.2    0.00 
 178   16:40   0.43   87.0    13   12.9   231    18.9   871.2    0.00 
 178   16:50   0.40   87.1    13    8.7   222    16.8   871.1    0.00 
 178   17:00   0.37   87.4    13   12.4   223    20.5   870.9    0.00 
 178   17:10   0.34   87.2    13   11.3   206    17.4   870.7    0.00 
 178   17:20   0.31   87.1    12   13.8   265    22.0   870.7    0.00 
 178   17:30   0.16   86.2    12   10.0   260    16.2   870.7    0.00 
 178   17:40   0.23   85.0    13    9.9   247    17.5   870.7    0.00 
 178   17:50   0.09   84.8    14   10.3   220    18.0   870.7    0.00 
 178   18:00   0.05   82.8    15   10.8   255    17.5   870.8    0.00 
 178   18:10   0.09   83.1    14   10.1   257    13.1   870.7    0.00 
 178   18:20   0.17   84.1    15    9.5   260    15.7   870.6    0.00 
 178   18:30   0.16   84.6    15   12.1   242    19.6   870.6    0.00 
 178   18:40   0.13   85.0    14   12.3   302    17.3   870.7    0.00 
 178   18:50   0.09   84.1    14   14.7   302    21.5   870.8    0.00 
 178   19:00   0.06   82.8    14   14.8   316    21.3   870.9    0.00 
 178   19:10   0.04   81.9    13   12.6   314    18.5   871.1    0.00 
 178   19:20   0.01   80.5    14   12.5   304    17.5   871.2    0.00 
 178   19:30   0.01   79.3    14    9.9   305    15.3   871.3    0.00 
 178   19:40   0.01   78.5    14   10.4   303    14.5   871.4    0.00 
 178   19:50   0.00   78.0    13   11.7   299    16.1   871.5    0.00 
 178   20:00   0.00   77.8    13   11.9   290    18.0   871.6    0.00 
 178   20:10   0.00   77.7    12   13.2   287    19.3   871.7    0.00 
 178   20:20   0.00   77.1    12   12.0   286    16.6   871.8    0.00 
 178   20:30   0.00   76.2    12   11.3   279    17.0   871.9    0.00 
 178   20:40   0.00   75.6    12   12.2   272    18.7   872.0    0.00 
 178   20:50   0.00   75.3    12   12.2   275    15.5   872.0    0.00 
 178   21:00   0.00   75.3    12   13.6   280    19.5   872.1    0.00 
 178   21:10   0.00   75.5    13   14.8   281    19.4   872.3    0.00 
 178   21:20   0.00   75.3    12   16.9   283    22.6   872.3    0.00 
 178   21:30   0.00   74.9    12   17.3   283    24.9   872.4    0.00 
 178   21:40   0.00   74.4    12   16.8   278    23.6   872.4    0.00 
 178   21:50   0.00   73.0    13   13.9   276    18.4   872.5    0.00 
 178   22:00   0.00   72.4    14   13.8   275    19.3   872.6    0.00 
 178   22:10   0.00   72.0    15   12.2   286    18.1   872.9    0.00 
 178   22:20   0.00   71.6    16   12.5   276    17.7   873.0    0.00 
 178   22:30   0.00   71.0    17   12.7   269    18.1   873.0    0.00 
 178   22:40   0.00   71.0    17   14.0   273    20.0   873.0    0.00 
 178   22:50   0.00   71.0    18   13.3   277    18.2   873.0    0.00 
 178   23:00   0.00   71.0    18   12.1   284    16.3   873.2    0.00 
 178   23:10   0.00   70.3    18   10.2   300    15.1   873.3    0.00 
 178   23:20   0.00   69.3    19    9.8   307    15.1   873.4    0.00 
 178   23:30   0.00   69.2    20   10.4   297    15.1   873.4    0.00 
 178   23:40   0.00   69.0    20    9.3   308    12.9   873.4    0.00 
 178   23:50   0.00   69.6    21    9.7   292    16.9   873.4    0.00 
 179    0:00   0.00   69.1    23    8.7   290    12.3   873.4    0.00 
 179    0:10   0.00   69.1    23    7.7   296    12.0   873.5    0.00 
 179    0:20   0.00   68.4    24    7.0   300     9.8   873.5    0.00 
 179    0:30   0.00   67.8    25    5.4   326     8.4   873.4    0.00 
 179    0:40   0.00   67.5    25    3.9     5     5.9   873.4    0.00 
 179    0:50   0.00   65.6    28    5.4   338     6.9   873.3    0.00 
 179    1:00   0.00   64.8    29    7.8   330    11.2   873.3    0.00 
 179    1:10   0.00   67.6    26    9.6   317    14.2   873.2    0.00 
 179    1:20   0.00   68.6    24   11.0   320    16.0   873.1    0.00 
 179    1:30   0.00   68.6    24   11.6   315    15.7   873.1    0.00 
 179    1:40   0.00   69.1    23   11.6   308    17.2   873.1    0.00 
 179    1:50   0.00   68.7    23   10.0   306    13.4   873.3    0.00 
 179    2:00   0.00   67.9    24    9.9   307    13.9   873.4    0.00 
 179    2:10   0.00   68.5    23   10.8   310    13.9   873.5    0.00 
 179    2:20   0.00   68.2    23   10.4   318    14.8   873.5    0.00 
 179    2:30   0.00   67.7    23   10.2   318    14.3   873.6    0.00 
 179    2:40   0.00   68.7    22    8.9   311    14.5   873.6    0.00 
 179    2:50   0.00   67.8    24    8.7   321    13.4   873.7    0.00 
 179    3:00   0.00   66.7    25    7.4   319    10.0   873.7    0.00 
 179    3:10   0.00   65.5    26    6.7   298     9.6   873.7    0.00 
 179    3:20   0.00   62.3    29    7.8   286     9.9   873.7    0.00 
 179    3:30   0.00   63.3    28    8.2   281    10.2   873.7    0.00 
 179    3:40   0.00   62.6    29    7.9   283    10.8   873.7    0.00 
 179    3:50   0.00   61.4    30    3.8   343    10.2   873.8    0.00 
 179    4:00   0.00   61.8    30    4.7   310     8.2   873.8    0.00 
 179    4:10   0.00   60.1    31    2.8   313     6.6   873.8    0.00 
 179    4:20   0.00   58.3    32    1.1   277     2.2   873.8    0.00 
 179    4:30   0.00   56.6    35    0.6    46     3.1   873.8    0.00 
 179    4:40   0.01   56.2    36    1.7   313     4.9   873.9    0.00 
 179    4:50   0.01   56.5    37    5.1   303     7.6   874.0    0.00 
 179    5:00   0.02   60.1    33    7.3   307     9.2   874.0    0.00 
 179    5:10   0.03   63.8    30    7.5   309     9.4   874.1    0.00 
 179    5:20   0.07   65.8    28    6.5   313     9.6   874.2    0.00 
 179    5:30   0.13   65.9    28    6.0   314     8.1   874.3    0.00 
 179    5:40   0.15   66.4    28    6.6   298     8.8   874.4    0.00 
 179    5:50   0.19   66.9    29    5.6   302     7.6   874.4    0.00 
 179    6:00   0.22   67.9    29    3.4   308     5.6   874.4    0.00 
 179    6:10   0.25   69.3    29    2.8   328     3.9   874.4    0.00 
 179    6:20   0.28   70.3    28    2.3   316     3.7   874.4    0.00 
 179    6:30   0.31   71.4    28    2.3   357     4.3   874.6    0.00 
 179    6:40   0.34   72.3    28    1.6    63     3.0   874.6    0.00 
 179    6:50   0.38   74.2    26    0.9    28     2.9   874.5    0.00 
 179    7:00   0.40   74.9    24    2.1    22     5.5   874.5    0.00 
 179    7:10   0.44   75.1    23    1.8     8     4.5   874.5    0.00 
 179    7:20   0.47   75.6    22    2.2    33     4.9   874.4    0.00 
 179    7:30   0.49   75.4    23    1.7   298     4.1   874.4    0.00 
 179    7:40   0.52   75.5    23    2.4   324     5.9   874.4    0.00 
 179    7:50   0.55   75.5    23    2.0    26     5.0   874.4    0.00 
 179    8:00   0.58   75.8    24    2.6    69     6.6   874.4    0.00 
 179    8:10   0.60   76.2    24    2.1    69     5.1   874.4    0.00 
 179    8:20   0.62   76.4    24    3.0    77     6.4   874.3    0.00 

Return to Hualapai Flat graphs page.


Western Regional Climate Center,wrcc@dri.edu